CheckWX is a tool to help pilots better visualize weather data.  It is not intended as a substitute for an official pre-flight weather briefing.

19:03:36 UTC

ETHC TAF
Celle Airport
Germany
TAF ETHC 191315Z 1914/1923 19010KT 9999 NSW SCT060 SCT150 TEMPO 1914/1921 VRB15G40KT 2000 TSRAGR SCT015 BKN030CB

Jun-19@
14:00 UTC

Jun-19 @ 14:00 UTC

Jun-19@
23:00 UTC

Jun-19 @ 23:00 UTC

TAF ETHC 191315Z 1914/1923 19010KT 9999 NSW SCT060 SCT150
Wind
  • 190° at 10 KTS
Conditions
No significant weather
Cloud Levels
  • Scattered at 6,000' AGL
  • Scattered at 15,000' AGL

Jun-19@
14:00 UTC

Jun-19 @ 14:00 UTC

Jun-19@
21:00 UTC

Jun-19 @ 21:00 UTC

TEMPO 1914/1921 VRB15G40KT 2000 TSRAGR SCT015 BKN030CB

Temporary

Temporary Changes expected for less than half the time period

Wind
  • Variable at 15 KTS
  • {Gusting to 40 KTS
Conditions
Thunderstorm, Rain, Thunderstorm, Hail
Cloud Levels
  • Scattered at 1,500' AGL
  • Broken at 3,000' AGL